Time;durP1;ratioP1;P1;durP2;ratioP2;P2;SDS_P1;SDS_P2;PMS_P1;PMS_P2;Temp;Humidity;BMP_temperature;BMP_pressure;BME280_temperature;BME280_humidity;BME280_pressure;Samples;Min_cycle;Max_cycle;Signal;HPM_P1;HPM_P2
2023/08/15 00:02:09;;;;;;;5.20;4.47;;;25.20;92.90;;;;;;5073847;28;20476;-59
2023/08/15 00:04:36;;;;;;;5.67;4.07;;;25.10;93.00;;;;;;5073994;28;20451;-59
2023/08/15 00:07:04;;;;;;;5.63;4.23;;;25.20;93.00;;;;;;5073999;28;20978;-59
2023/08/15 00:09:31;;;;;;;4.53;4.13;;;25.20;93.00;;;;;;5073925;28;20441;-59
2023/08/15 00:11:58;;;;;;;5.33;4.20;;;25.20;92.90;;;;;;5073830;28;20826;-59
2023/08/15 00:14:26;;;;;;;3.97;3.60;;;25.20;93.10;;;;;;5073727;28;20489;-59
2023/08/15 00:16:52;;;;;;;5.43;3.80;;;25.10;93.10;;;;;;5073749;28;20445;-59
2023/08/15 00:19:19;;;;;;;4.30;3.90;;;25.10;93.20;;;;;;5073387;28;20941;-59
2023/08/15 00:21:46;;;;;;;7.40;4.53;;;25.10;93.20;;;;;;5073358;28;20523;-59
2023/08/15 00:24:12;;;;;;;5.80;4.10;;;25.10;93.30;;;;;;5074199;28;20440;-59
2023/08/15 00:26:39;;;;;;;4.97;4.10;;;25.10;93.40;;;;;;5073623;28;20456;-59
2023/08/15 00:29:06;;;;;;;4.50;4.10;;;25.10;93.40;;;;;;5073298;28;20825;-59
2023/08/15 00:31:34;;;;;;;4.80;4.10;;;25.10;93.50;;;;;;5073468;28;20864;-59
2023/08/15 00:34:00;;;;;;;4.30;4.00;;;25.10;93.60;;;;;;5073466;28;20480;-59
2023/08/15 00:36:27;;;;;;;3.77;3.47;;;25.10;93.80;;;;;;5073553;28;20445;-59
2023/08/15 00:38:54;;;;;;;4.73;4.30;;;25.00;94.00;;;;;;5073494;28;20441;-59
2023/08/15 00:41:21;;;;;;;5.80;4.37;;;25.00;94.20;;;;;;5073405;28;20461;-59
2023/08/15 00:43:47;;;;;;;9.23;4.07;;;25.00;94.40;;;;;;5073510;28;20476;-59
2023/08/15 00:46:15;;;;;;;5.77;4.30;;;25.00;94.40;;;;;;5073375;28;20455;-59
2023/08/15 00:48:43;;;;;;;5.00;4.00;;;24.90;94.60;;;;;;5073614;28;20437;-59
2023/08/15 00:51:10;;;;;;;3.93;3.53;;;24.90;94.70;;;;;;5073189;28;20985;-59
2023/08/15 00:53:37;;;;;;;4.70;3.70;;;24.90;94.60;;;;;;5073231;28;20851;-59
2023/08/15 00:56:04;;;;;;;4.63;3.47;;;24.90;94.60;;;;;;5073253;28;20449;-59
2023/08/15 00:58:31;;;;;;;4.57;4.10;;;24.90;94.80;;;;;;5073238;28;20452;-59
2023/08/15 01:00:58;;;;;;;4.60;4.20;;;24.80;95.00;;;;;;5073199;28;20472;-59
2023/08/15 01:03:25;;;;;;;4.50;3.80;;;24.70;95.30;;;;;;5073201;28;20441;-59
2023/08/15 01:05:54;;;;;;;4.50;3.60;;;24.60;95.10;;;;;;5073222;28;20814;-59
2023/08/15 01:08:20;;;;;;;4.43;3.83;;;24.60;95.40;;;;;;5073151;28;20451;-59
2023/08/15 01:10:48;;;;;;;3.90;3.60;;;24.60;95.50;;;;;;5065353;28;20472;-59
2023/08/15 01:13:23;;;;;;;6.20;3.97;;;24.60;95.60;;;;;;5052909;28;20473;-59
2023/08/15 01:15:51;;;;;;;6.40;4.10;;;24.60;95.80;;;;;;5053323;28;20429;-59
2023/08/15 01:18:25;;;;;;;4.27;3.87;;;24.60;95.70;;;;;;5053080;28;20448;-59
2023/08/15 01:20:54;;;;;;;6.67;3.60;;;24.60;95.80;;;;;;5052810;28;20470;-59
2023/08/15 01:23:29;;;;;;;4.20;3.53;;;24.60;95.90;;;;;;5052972;28;20437;-59
2023/08/15 01:25:57;;;;;;;5.47;4.07;;;24.70;96.00;;;;;;5053007;28;20437;-59
2023/08/15 01:28:24;;;;;;;6.00;3.13;;;24.70;95.90;;;;;;5052915;28;20446;-59
2023/08/15 01:31:06;;;;;;;3.80;3.37;;;24.70;95.90;;;;;;5052487;28;20473;-59
2023/08/15 01:33:38;;;;;;;4.37;3.60;;;24.80;95.90;;;;;;5052860;28;20469;-59
2023/08/15 01:36:10;;;;;;;8.80;4.03;;;24.80;95.90;;;;;;5052923;28;20433;-59
2023/08/15 01:38:42;;;;;;;3.60;3.30;;;24.80;95.70;;;;;;5052882;28;20504;-59
2023/08/15 01:41:15;;;;;;;4.80;3.67;;;24.80;95.70;;;;;;5052829;28;20466;-59
2023/08/15 01:43:44;;;;;;;4.37;3.77;;;24.80;95.80;;;;;;5052521;28;20904;-59
2023/08/15 01:46:12;;;;;;;7.90;4.80;;;24.80;95.80;;;;;;5054155;28;20851;-59
2023/08/15 01:48:41;;;;;;;4.27;3.63;;;24.70;95.90;;;;;;5056593;28;20943;-59
2023/08/15 01:51:08;;;;;;;3.97;3.60;;;24.70;96.00;;;;;;5056603;28;20465;-59
2023/08/15 01:53:35;;;;;;;5.90;3.47;;;24.70;96.00;;;;;;5056229;28;20488;-59
2023/08/15 01:56:02;;;;;;;5.40;3.70;;;24.70;96.20;;;;;;5056551;28;20523;-59
2023/08/15 01:58:30;;;;;;;4.43;3.73;;;24.70;96.60;;;;;;5056492;28;20444;-59
2023/08/15 02:00:57;;;;;;;5.70;3.90;;;24.70;96.40;;;;;;5056394;28;20531;-59
2023/08/15 02:03:25;;;;;;;5.90;3.80;;;24.70;96.50;;;;;;5056558;28;20437;-59
2023/08/15 02:05:52;;;;;;;9.60;4.60;;;24.70;96.40;;;;;;5056244;28;20503;-59
2023/08/15 02:08:18;;;;;;;7.97;4.27;;;24.60;96.40;;;;;;5056390;28;20511;-59
2023/08/15 02:10:45;;;;;;;5.10;4.30;;;24.60;96.50;;;;;;5056247;28;20461;-59
2023/08/15 02:13:12;;;;;;;6.30;3.80;;;24.50;96.70;;;;;;5055867;28;20472;-59
2023/08/15 02:15:39;;;;;;;9.67;4.03;;;24.50;96.90;;;;;;5056169;28;20444;-59
2023/08/15 02:18:07;;;;;;;10.63;5.00;;;24.50;97.10;;;;;;5056021;28;20495;-59
2023/08/15 02:20:33;;;;;;;6.77;3.93;;;24.50;97.30;;;;;;5055801;28;20568;-59
2023/08/15 02:23:00;;;;;;;4.53;4.10;;;24.50;97.40;;;;;;5056004;28;20433;-59
2023/08/15 02:25:27;;;;;;;7.77;4.93;;;24.40;97.30;;;;;;5055966;28;20475;-59
2023/08/15 02:27:53;;;;;;;7.83;5.13;;;24.40;97.40;;;;;;5055714;28;20445;-59
2023/08/15 02:30:20;;;;;;;5.57;5.07;;;24.40;97.50;;;;;;5055798;28;20473;-58
2023/08/15 02:32:48;;;;;;;7.80;4.27;;;24.40;97.70;;;;;;5055722;28;20453;-56
2023/08/15 02:35:15;;;;;;;11.50;4.93;;;24.30;97.90;;;;;;5055910;28;20457;-57
2023/08/15 02:37:41;;;;;;;6.70;4.33;;;24.40;98.50;;;;;;5055756;28;20449;-57
2023/08/15 02:40:09;;;;;;;6.40;4.30;;;24.30;98.70;;;;;;5056015;28;20442;-58
2023/08/15 02:42:36;;;;;;;7.30;4.17;;;24.30;98.80;;;;;;5055595;28;20887;-57
2023/08/15 02:45:04;;;;;;;7.57;4.93;;;24.20;99.30;;;;;;5055524;28;20444;-57
2023/08/15 02:47:30;;;;;;;6.40;4.97;;;24.10;99.90;;;;;;5055231;28;20927;-57
2023/08/15 02:49:58;;;;;;;7.43;4.80;;;23.90;99.90;;;;;;5055531;28;20491;-57
2023/08/15 02:52:25;;;;;;;9.47;4.60;;;23.70;99.90;;;;;;5055543;28;20449;-56
2023/08/15 02:54:52;;;;;;;5.57;4.77;;;23.70;99.90;;;;;;5055460;28;20505;-56
2023/08/15 02:57:18;;;;;;;8.67;4.80;;;23.50;99.90;;;;;;5054352;28;20449;-56
2023/08/15 02:59:45;;;;;;;5.90;4.63;;;23.40;99.90;;;;;;5055463;28;20441;-56
2023/08/15 03:02:13;;;;;;;6.83;4.63;;;23.30;99.90;;;;;;5055459;28;20465;-56
2023/08/15 03:04:40;;;;;;;5.63;4.30;;;23.20;99.90;;;;;;5055056;28;20488;-56
2023/08/15 03:07:08;;;;;;;6.53;5.10;;;23.10;99.90;;;;;;5055492;28;20444;-56
2023/08/15 03:09:35;;;;;;;6.13;5.03;;;23.00;99.90;;;;;;5055228;28;20464;-56
2023/08/15 03:12:02;;;;;;;12.10;5.40;;;23.00;99.90;;;;;;5055066;28;20535;-56
2023/08/15 03:14:29;;;;;;;7.17;4.77;;;22.90;99.90;;;;;;5054659;28;21036;-56
2023/08/15 03:16:55;;;;;;;8.63;4.80;;;22.90;99.90;;;;;;5055303;28;20481;-56
2023/08/15 03:19:22;;;;;;;6.33;5.00;;;23.00;99.90;;;;;;5055744;28;20463;-57
2023/08/15 03:21:49;;;;;;;7.03;4.77;;;23.00;99.90;;;;;;5054826;28;20477;-56
2023/08/15 03:24:17;;;;;;;6.87;4.43;;;22.90;99.90;;;;;;5054853;28;20491;-56
2023/08/15 03:26:43;;;;;;;6.37;4.50;;;23.00;99.90;;;;;;5054537;28;20970;-56
2023/08/15 03:29:10;;;;;;;7.57;5.50;;;22.90;99.90;;;;;;5054723;28;20856;-56
2023/08/15 03:31:37;;;;;;;5.50;4.00;;;22.80;99.90;;;;;;5054622;28;20468;-60
2023/08/15 03:34:04;;;;;;;5.57;4.50;;;22.70;99.90;;;;;;5054574;28;20488;-56
2023/08/15 03:36:30;;;;;;;4.93;4.27;;;22.70;99.90;;;;;;5054666;28;20446;-57
2023/08/15 03:38:57;;;;;;;7.40;4.83;;;22.70;99.90;;;;;;5054555;28;20458;-58
2023/08/15 03:41:25;;;;;;;4.67;3.60;;;22.70;99.90;;;;;;5054531;28;20465;-58
2023/08/15 03:43:52;;;;;;;6.60;4.73;;;22.70;99.90;;;;;;5054602;28;20446;-58
2023/08/15 03:46:19;;;;;;;6.50;4.03;;;22.80;99.90;;;;;;5054597;28;20445;-58
2023/08/15 03:48:46;;;;;;;6.70;4.70;;;22.80;99.90;;;;;;5054111;28;20548;-59
2023/08/15 03:51:12;;;;;;;6.27;3.93;;;22.80;99.90;;;;;;5054286;28;20862;-59
2023/08/15 03:53:39;;;;;;;8.23;4.57;;;22.90;99.90;;;;;;5054448;28;20488;-59
2023/08/15 03:56:06;;;;;;;4.90;3.43;;;22.90;99.90;;;;;;5054581;28;20450;-59
2023/08/15 03:58:34;;;;;;;5.90;4.43;;;22.90;99.90;;;;;;5055542;28;20450;-59
2023/08/15 04:01:02;;;;;;;9.33;5.30;;;22.90;99.90;;;;;;5054505;28;20492;-59
2023/08/15 04:03:28;;;;;;;8.57;5.10;;;23.00;99.90;;;;;;5054187;28;20453;-59
2023/08/15 04:05:55;;;;;;;6.03;4.10;;;23.10;99.90;;;;;;5054100;28;20449;-59
2023/08/15 04:08:22;;;;;;;5.07;4.37;;;23.10;99.90;;;;;;5053692;28;20450;-59
2023/08/15 04:10:49;;;;;;;8.03;4.50;;;23.10;99.90;;;;;;5053944;28;20477;-59
2023/08/15 04:13:15;;;;;;;4.70;4.20;;;23.10;99.90;;;;;;5053344;28;20963;-59
2023/08/15 04:15:43;;;;;;;6.80;4.53;;;23.20;99.90;;;;;;5053884;28;20817;-59
2023/08/15 04:18:10;;;;;;;8.50;4.70;;;23.20;99.90;;;;;;5054068;28;20450;-59
2023/08/15 04:20:38;;;;;;;5.67;4.00;;;23.10;99.90;;;;;;5053891;28;20998;-60
2023/08/15 04:23:05;;;;;;;10.10;5.07;;;23.10;99.90;;;;;;5054569;28;20438;-59
2023/08/15 04:25:33;;;;;;;5.50;4.30;;;23.00;99.90;;;;;;5053657;28;20442;-59
2023/08/15 04:28:00;;;;;;;6.97;4.57;;;23.00;99.90;;;;;;5053624;28;20453;-59
2023/08/15 04:30:26;;;;;;;8.03;4.93;;;22.90;99.90;;;;;;5053565;28;20477;-59
2023/08/15 04:32:55;;;;;;;5.77;4.93;;;22.80;99.90;;;;;;5053568;28;20545;-59
2023/08/15 04:35:23;;;;;;;6.17;5.00;;;22.80;99.90;;;;;;5053479;28;20555;-59
2023/08/15 04:37:50;;;;;;;11.07;5.83;;;22.80;99.90;;;;;;5053518;28;20504;-59
2023/08/15 04:40:29;;;;;;;7.90;5.93;;;22.80;99.90;;;;;;5053416;28;20457;-59
2023/08/15 04:42:56;;;;;;;7.33;5.43;;;22.80;99.90;;;;;;5053547;28;20465;-59
2023/08/15 04:45:23;;;;;;;7.50;5.70;;;22.80;99.90;;;;;;5053387;28;20445;-58
2023/08/15 04:47:49;;;;;;;7.73;5.90;;;22.80;99.90;;;;;;5053344;28;20453;-58
2023/08/15 04:50:18;;;;;;;6.30;5.10;;;22.80;99.90;;;;;;5053378;28;20446;-58
2023/08/15 04:52:44;;;;;;;9.30;5.97;;;22.80;99.90;;;;;;5053423;28;20816;-57
2023/08/15 04:55:13;;;;;;;6.97;5.50;;;22.80;99.90;;;;;;5053321;28;20489;-57
2023/08/15 04:57:39;;;;;;;9.47;6.40;;;22.80;99.90;;;;;;5053242;28;20876;-58
2023/08/15 05:00:08;;;;;;;6.67;5.97;;;22.90;99.90;;;;;;5053234;28;20449;-59
2023/08/15 05:02:36;;;;;;;13.53;9.10;;;22.80;99.90;;;;;;5053210;28;20499;-59
2023/08/15 05:05:04;;;;;;;9.60;7.03;;;22.80;99.90;;;;;;5052857;28;20532;-59
2023/08/15 05:07:32;;;;;;;7.47;6.00;;;22.90;99.90;;;;;;5053155;28;20499;-59
2023/08/15 05:09:58;;;;;;;7.17;6.13;;;22.90;99.90;;;;;;5053088;28;20499;-59
2023/08/15 05:12:25;;;;;;;6.60;5.90;;;23.00;99.90;;;;;;5053152;28;20449;-59
2023/08/15 05:14:52;;;;;;;6.30;5.00;;;23.00;99.90;;;;;;5052786;28;21018;-59
2023/08/15 05:17:19;;;;;;;8.53;5.63;;;23.10;99.90;;;;;;5053135;28;20464;-59
2023/08/15 05:19:45;;;;;;;7.43;6.57;;;23.10;99.90;;;;;;5053083;28;20451;-59
2023/08/15 05:22:12;;;;;;;9.83;6.20;;;23.10;99.90;;;;;;5056125;28;20542;-59
2023/08/15 05:24:40;;;;;;;9.47;6.67;;;23.10;99.90;;;;;;5057234;28;20453;-59
2023/08/15 05:27:07;;;;;;;7.20;4.67;;;23.10;99.90;;;;;;5057091;28;20453;-59
2023/08/15 05:29:33;;;;;;;4.73;4.10;;;23.10;99.90;;;;;;5057446;28;20452;-59
2023/08/15 05:32:00;;;;;;;10.27;4.10;;;23.00;99.90;;;;;;5057128;28;20472;-59
2023/08/15 05:34:27;;;;;;;4.70;4.30;;;22.90;99.90;;;;;;5057228;28;20490;-59
2023/08/15 05:36:53;;;;;;;5.07;3.80;;;22.80;99.90;;;;;;5057016;28;20445;-59
2023/08/15 05:39:20;;;;;;;5.00;4.13;;;22.70;99.90;;;;;;5056831;28;20449;-59
2023/08/15 05:41:48;;;;;;;4.47;3.73;;;22.70;99.90;;;;;;5056832;28;20469;-59
2023/08/15 05:44:15;;;;;;;4.80;4.00;;;22.80;99.90;;;;;;5056856;28;20445;-59
2023/08/15 05:46:41;;;;;;;4.60;3.90;;;22.80;99.90;;;;;;5056821;28;20442;-59
2023/08/15 05:49:08;;;;;;;6.17;4.00;;;22.80;99.90;;;;;;5056369;28;20943;-59
2023/08/15 05:51:35;;;;;;;13.83;3.97;;;22.80;99.90;;;;;;5056595;28;20488;-59
2023/08/15 05:54:01;;;;;;;6.37;4.10;;;22.70;99.50;;;;;;5056481;28;20445;-59
2023/08/15 05:56:28;;;;;;;5.70;3.73;;;22.70;99.50;;;;;;5057073;28;20448;-59
2023/08/15 05:58:56;;;;;;;8.03;3.63;;;22.60;99.50;;;;;;5056557;28;20456;-59
2023/08/15 06:01:23;;;;;;;7.33;4.17;;;22.60;99.40;;;;;;5056123;28;20848;-59
2023/08/15 06:03:49;;;;;;;4.77;3.53;;;22.70;99.60;;;;;;5056366;28;20445;-59
2023/08/15 06:06:16;;;;;;;8.37;3.33;;;22.60;99.70;;;;;;5056404;28;20441;-59
2023/08/15 06:08:43;;;;;;;12.07;3.90;;;22.70;99.90;;;;;;5056385;28;20445;-59
2023/08/15 06:11:09;;;;;;;4.60;3.53;;;22.70;99.90;;;;;;5056241;28;20465;-59
2023/08/15 06:13:36;;;;;;;8.70;4.20;;;22.70;99.50;;;;;;5056243;28;20449;-59
2023/08/15 06:16:04;;;;;;;10.53;3.77;;;22.80;99.60;;;;;;5056162;28;20488;-59
2023/08/15 06:18:31;;;;;;;4.77;3.13;;;22.80;99.70;;;;;;5056268;28;20441;-59
2023/08/15 06:20:58;;;;;;;8.20;3.57;;;22.90;99.70;;;;;;5055835;28;20473;-59
2023/08/15 06:23:24;;;;;;;7.67;3.50;;;23.00;99.80;;;;;;5056067;28;20434;-59
2023/08/15 06:25:51;;;;;;;5.73;3.30;;;23.00;99.90;;;;;;5056002;28;20449;-59
2023/08/15 06:28:20;;;;;;;5.43;3.47;;;23.10;99.80;;;;;;5055941;28;20437;-59
2023/08/15 06:30:46;;;;;;;5.83;3.63;;;23.10;99.80;;;;;;5055753;28;20477;-59
2023/08/15 06:33:14;;;;;;;7.20;3.67;;;23.20;99.90;;;;;;5055315;28;20445;-59
2023/08/15 06:35:41;;;;;;;5.97;3.87;;;23.30;99.90;;;;;;5055832;28;20477;-59
2023/08/15 06:38:08;;;;;;;4.00;3.60;;;23.30;99.90;;;;;;5055677;28;20441;-59
2023/08/15 06:40:34;;;;;;;6.70;3.70;;;23.40;99.80;;;;;;5055817;28;20461;-60
2023/08/15 06:43:01;;;;;;;5.60;3.50;;;23.40;99.70;;;;;;5055660;28;20450;-59
2023/08/15 06:45:28;;;;;;;4.60;3.17;;;23.50;99.50;;;;;;5055622;28;20495;-59
2023/08/15 06:47:55;;;;;;;7.60;2.83;;;23.50;99.50;;;;;;5055599;28;20798;-59
2023/08/15 06:50:23;;;;;;;5.67;3.23;;;23.60;99.50;;;;;;5055556;28;20468;-59
2023/08/15 06:52:49;;;;;;;4.33;3.50;;;23.60;98.90;;;;;;5055249;28;20842;-59
2023/08/15 06:55:16;;;;;;;3.10;2.43;;;23.70;98.00;;;;;;5055380;28;20477;-59
2023/08/15 06:57:43;;;;;;;5.67;3.50;;;23.70;97.30;;;;;;5055395;28;20449;-59
2023/08/15 07:00:11;;;;;;;4.73;2.87;;;23.80;97.40;;;;;;5055321;28;20441;-59
2023/08/15 07:02:39;;;;;;;5.10;2.73;;;23.90;97.50;;;;;;5055287;28;20466;-59
2023/08/15 07:05:07;;;;;;;4.70;2.50;;;24.00;97.50;;;;;;5055277;28;20473;-59
2023/08/15 07:07:35;;;;;;;9.00;2.77;;;24.00;97.40;;;;;;5055165;28;20446;-59
2023/08/15 07:10:02;;;;;;;3.70;3.03;;;24.10;96.40;;;;;;5055167;28;20973;-59
2023/08/15 07:12:29;;;;;;;2.87;2.57;;;24.10;96.00;;;;;;5055172;28;20453;-59
2023/08/15 07:14:56;;;;;;;3.37;1.83;;;24.20;95.90;;;;;;5055046;28;20477;-60
2023/08/15 07:17:23;;;;;;;3.27;2.30;;;24.30;95.60;;;;;;5055355;28;20450;-60
2023/08/15 07:19:49;;;;;;;3.93;3.07;;;24.30;95.30;;;;;;5055120;28;20450;-59
2023/08/15 07:22:16;;;;;;;4.53;2.83;;;24.40;95.50;;;;;;5054611;28;20477;-59
2023/08/15 07:24:45;;;;;;;6.20;3.23;;;24.50;95.40;;;;;;5055318;28;20441;-59
2023/08/15 07:27:13;;;;;;;9.13;2.70;;;24.60;94.00;;;;;;5054954;28;20446;-59
2023/08/15 07:29:40;;;;;;;2.90;2.47;;;24.60;93.30;;;;;;5054860;28;20449;-59
2023/08/15 07:32:08;;;;;;;6.80;3.50;;;24.60;92.00;;;;;;5054721;28;20461;-59
2023/08/15 07:34:34;;;;;;;5.77;2.90;;;24.60;92.20;;;;;;5054777;28;20449;-59
2023/08/15 07:37:01;;;;;;;5.57;2.40;;;24.50;92.70;;;;;;5054754;28;20440;-59
2023/08/15 07:39:28;;;;;;;7.00;2.73;;;24.60;92.60;;;;;;5055353;28;20445;-60
2023/08/15 07:41:56;;;;;;;4.80;2.23;;;24.70;91.50;;;;;;5055831;28;20468;-61
2023/08/15 07:44:23;;;;;;;5.40;2.20;;;24.70;91.10;;;;;;5054485;28;20447;-59
2023/08/15 07:46:50;;;;;;;5.50;2.77;;;24.90;91.60;;;;;;5054812;28;20472;-59
2023/08/15 07:49:17;;;;;;;4.73;2.90;;;25.00;92.30;;;;;;5054469;28;20504;-59
2023/08/15 07:51:43;;;;;;;5.07;2.10;;;25.10;92.00;;;;;;5054491;28;20462;-60
2023/08/15 07:54:10;;;;;;;8.53;2.60;;;25.20;91.00;;;;;;5054410;28;20472;-60
2023/08/15 07:56:37;;;;;;;3.33;1.90;;;25.40;90.30;;;;;;5054607;28;20481;-59
2023/08/15 07:59:05;;;;;;;4.07;2.30;;;25.40;89.30;;;;;;5054266;28;20449;-60
2023/08/15 08:01:32;;;;;;;4.17;1.53;;;25.50;89.40;;;;;;5053726;28;20465;-60
2023/08/15 08:04:00;;;;;;;4.53;1.83;;;25.60;89.70;;;;;;5053792;28;20894;-59
2023/08/15 08:06:27;;;;;;;3.07;1.93;;;25.90;88.50;;;;;;5053833;28;20813;-60
2023/08/15 08:08:54;;;;;;;6.17;1.90;;;26.10;87.40;;;;;;5053702;28;20438;-60
2023/08/15 08:11:20;;;;;;;5.50;2.20;;;26.30;86.90;;;;;;5053710;28;20971;-60
2023/08/15 08:13:47;;;;;;;4.70;2.10;;;26.50;86.00;;;;;;5054070;28;20445;-60
2023/08/15 08:16:17;;;;;;;3.63;2.07;;;26.60;83.40;;;;;;5053868;28;20500;-60
2023/08/15 08:18:43;;;;;;;6.07;2.03;;;26.80;82.20;;;;;;5054141;28;20453;-60
2023/08/15 08:21:11;;;;;;;2.90;2.03;;;26.90;81.20;;;;;;5053314;28;21017;-60
2023/08/15 08:23:37;;;;;;;5.67;2.33;;;27.00;81.20;;;;;;5053786;28;20445;-59
2023/08/15 08:26:04;;;;;;;5.47;2.37;;;27.20;82.40;;;;;;5053731;28;20438;-60
2023/08/15 08:28:31;;;;;;;4.00;2.23;;;27.20;80.60;;;;;;5054272;28;20491;-60
2023/08/15 08:30:58;;;;;;;2.50;1.83;;;27.20;80.50;;;;;;5053619;28;20472;-60
2023/08/15 08:33:28;;;;;;;5.13;2.10;;;27.30;80.50;;;;;;5053578;28;20448;-60
2023/08/15 08:35:56;;;;;;;7.63;2.17;;;27.40;80.60;;;;;;5053846;28;20474;-60
2023/08/15 08:38:22;;;;;;;7.33;2.57;;;27.50;79.60;;;;;;5053633;28;20516;-60
2023/08/15 08:40:49;;;;;;;3.00;1.83;;;27.70;79.30;;;;;;5053517;28;20473;-60
2023/08/15 08:43:16;;;;;;;4.50;2.57;;;27.80;77.60;;;;;;5053540;28;20441;-60
2023/08/15 08:45:49;;;;;;;7.47;2.27;;;28.10;77.10;;;;;;5053204;28;20472;-60
2023/08/15 08:48:17;;;;;;;7.37;2.10;;;28.30;74.80;;;;;;5053524;28;20464;-60
2023/08/15 08:50:46;;;;;;;4.80;2.47;;;28.50;71.80;;;;;;5053312;28;20466;-60
2023/08/15 08:53:13;;;;;;;4.83;2.23;;;28.70;71.00;;;;;;5053415;28;20450;-60
2023/08/15 08:55:40;;;;;;;5.87;2.27;;;28.60;70.20;;;;;;5052414;28;20478;-60
2023/08/15 08:58:12;;;;;;;4.93;2.40;;;28.40;70.50;;;;;;5053261;28;20445;-60
2023/08/15 09:00:41;;;;;;;4.17;2.30;;;28.20;71.10;;;;;;5052902;28;20979;-60
2023/08/15 09:03:09;;;;;;;3.07;1.83;;;28.00;72.60;;;;;;5053502;28;20445;-60
2023/08/15 09:05:36;;;;;;;5.53;2.30;;;27.90;73.20;;;;;;5053293;28;20503;-59
2023/08/15 09:08:05;;;;;;;14.03;2.30;;;28.10;74.70;;;;;;5053356;28;20445;-60
2023/08/15 09:10:32;;;;;;;6.40;2.30;;;28.20;74.10;;;;;;5053205;28;20470;-60
2023/08/15 09:13:00;;;;;;;7.37;2.50;;;28.40;72.30;;;;;;5053219;28;20471;-60
2023/08/15 09:15:26;;;;;;;3.13;1.60;;;28.50;70.00;;;;;;5053176;28;20571;-60
2023/08/15 09:17:59;;;;;;;4.37;2.47;;;28.70;70.30;;;;;;5053171;28;20449;-60
2023/08/15 09:20:26;;;;;;;5.50;2.60;;;28.90;69.40;;;;;;5052953;28;20488;-60
2023/08/15 09:22:56;;;;;;;3.90;2.13;;;29.20;67.90;;;;;;5052890;28;20445;-60
2023/08/15 09:25:27;;;;;;;2.63;1.60;;;29.30;66.40;;;;;;5053035;28;20912;-60
2023/08/15 09:27:54;;;;;;;6.03;2.00;;;29.30;67.00;;;;;;5053012;28;20425;-59
2023/08/15 09:30:22;;;;;;;3.80;2.03;;;29.50;65.80;;;;;;5052918;28;20500;-60
2023/08/15 09:32:48;;;;;;;7.03;2.77;;;29.60;65.20;;;;;;5052957;28;20527;-60
2023/08/15 09:35:17;;;;;;;5.50;2.33;;;29.80;63.70;;;;;;5052810;28;21113;-57
2023/08/15 09:37:45;;;;;;;4.80;1.90;;;30.10;61.60;;;;;;5052971;28;20444;-57
2023/08/15 09:40:14;;;;;;;3.87;2.10;;;30.10;60.40;;;;;;5052562;28;20476;-57
2023/08/15 09:42:43;;;;;;;4.57;2.60;;;30.40;61.00;;;;;;5052900;28;20441;-58
2023/08/15 09:45:12;;;;;;;5.33;2.13;;;30.50;59.20;;;;;;5053654;28;20444;-58
2023/08/15 09:47:39;;;;;;;6.40;2.43;;;30.60;59.70;;;;;;5052672;28;20448;-58
2023/08/15 09:50:07;;;;;;;5.07;2.17;;;30.80;60.20;;;;;;5071279;28;20505;-58
2023/08/15 09:52:36;;;;;;;5.17;2.13;;;31.10;58.80;;;;;;5070754;28;20542;-58
2023/08/15 09:55:03;;;;;;;2.90;2.20;;;31.60;58.30;;;;;;5072741;28;20448;-58
2023/08/15 09:57:30;;;;;;;6.00;2.17;;;31.90;56.00;;;;;;5072787;28;20487;-58
2023/08/15 09:59:58;;;;;;;2.93;1.67;;;32.00;53.90;;;;;;5072731;28;20447;-58
2023/08/15 10:02:27;;;;;;;3.63;1.83;;;32.20;54.70;;;;;;5072388;28;20436;-58
2023/08/15 10:05:00;;;;;;;5.90;2.50;;;32.40;54.60;;;;;;5072769;28;20510;-58
2023/08/15 10:07:31;;;;;;;2.73;2.30;;;32.60;52.80;;;;;;5074167;28;20523;-58
2023/08/15 10:10:00;;;;;;;3.33;2.03;;;32.80;52.30;;;;;;5076098;28;20894;-58
2023/08/15 10:12:29;;;;;;;10.70;2.50;;;33.00;51.30;;;;;;5076003;28;20849;-58
2023/08/15 10:14:58;;;;;;;4.83;2.13;;;33.10;51.10;;;;;;5076322;28;20443;-58
2023/08/15 10:17:26;;;;;;;4.30;2.20;;;33.30;49.90;;;;;;5076141;28;20506;-58
2023/08/15 10:19:53;;;;;;;5.67;2.10;;;33.60;49.20;;;;;;5077523;28;20450;-58
2023/08/15 10:22:19;;;;;;;3.63;2.27;;;33.90;47.70;;;;;;5077049;28;21006;-58
2023/08/15 10:24:46;;;;;;;4.60;1.73;;;34.30;48.10;;;;;;5076687;28;20968;-58
2023/08/15 10:27:14;;;;;;;5.57;2.10;;;34.70;47.20;;;;;;5076671;28;20451;-58
2023/08/15 10:29:54;;;;;;;2.70;1.73;;;35.20;45.70;;;;;;5076159;28;20208;-58
2023/08/15 10:32:26;;;;;;;3.80;2.33;;;35.70;44.80;;;;;;5076442;28;20218;-58
2023/08/15 10:34:59;;;;;;;5.13;1.93;;;36.20;42.70;;;;;;5076007;28;20217;-58
2023/08/15 10:37:31;;;;;;;2.58;1.50;;;36.70;40.90;;;;;;5075872;28;20213;-58
2023/08/15 10:40:08;;;;;;;3.53;2.20;;;36.80;38.30;;;;;;5075709;28;20205;-58
2023/08/15 10:43:07;;;;;;;4.95;1.95;;;36.90;38.10;;;;;;5075765;28;20241;-58
2023/08/15 10:45:36;;;;;;;4.70;1.60;;;36.90;39.10;;;;;;5075409;28;20659;-58
2023/08/15 10:48:05;;;;;;;2.90;1.80;;;37.10;39.50;;;;;;5075691;28;20205;-58
2023/08/15 10:50:32;;;;;;;6.95;2.40;;;37.00;37.20;;;;;;5075254;28;20753;-58
2023/08/15 10:52:58;;;;;;;2.55;1.77;;;37.10;36.90;;;;;;5075666;28;20202;-58
2023/08/15 10:55:27;;;;;;;3.08;1.85;;;37.40;37.00;;;;;;5075474;28;20229;-58
2023/08/15 10:57:55;;;;;;;3.42;1.52;;;37.90;35.20;;;;;;5075588;28;20210;-58
2023/08/15 11:00:23;;;;;;;6.75;2.05;;;38.40;34.40;;;;;;5075416;28;20218;-58
2023/08/15 11:02:50;;;;;;;5.18;1.90;;;38.70;33.60;;;;;;5075532;28;20229;-58
2023/08/15 11:05:19;;;;;;;3.00;1.92;;;38.80;32.80;;;;;;5075127;28;20564;-58
2023/08/15 11:07:46;;;;;;;3.53;1.98;;;38.80;32.50;;;;;;5075214;28;20229;-58
2023/08/15 11:10:13;;;;;;;4.50;2.45;;;38.60;33.50;;;;;;5075162;28;20198;-58
2023/08/15 11:12:47;;;;;;;6.47;2.47;;;38.30;33.10;;;;;;5074906;28;20201;-58
2023/08/15 11:15:14;;;;;;;4.55;2.38;;;38.20;33.50;;;;;;5075185;28;20193;-58
2023/08/15 11:17:40;;;;;;;3.55;1.92;;;38.00;34.00;;;;;;5074524;28;20703;-58
2023/08/15 11:20:09;;;;;;;7.22;1.90;;;37.80;33.90;;;;;;5074266;28;20229;-58
2023/08/15 11:22:37;;;;;;;4.28;1.80;;;37.60;33.60;;;;;;5074574;28;20218;-58
2023/08/15 11:25:07;;;;;;;5.55;2.15;;;37.30;34.10;;;;;;5074993;28;20205;-58
2023/08/15 11:27:39;;;;;;;2.72;1.83;;;37.00;34.50;;;;;;5074955;28;20186;-58
2023/08/15 11:30:10;;;;;;;3.38;1.60;;;36.70;35.50;;;;;;5074665;28;20186;-58
2023/08/15 11:32:39;;;;;;;4.05;2.25;;;36.70;37.20;;;;;;5074881;28;20182;-58
2023/08/15 11:35:07;;;;;;;2.90;1.67;;;36.70;36.70;;;;;;5074489;28;20209;-58
2023/08/15 11:37:35;;;;;;;3.08;1.98;;;36.80;35.60;;;;;;5074368;28;20221;-58
2023/08/15 11:40:04;;;;;;;3.40;1.50;;;36.90;34.90;;;;;;5074550;28;20232;-58
2023/08/15 11:42:31;;;;;;;5.20;2.85;;;37.00;35.20;;;;;;5074628;28;20224;-58
2023/08/15 11:45:12;;;;;;;5.68;2.30;;;37.20;34.40;;;;;;5074640;28;20201;-58
2023/08/15 11:47:55;;;;;;;6.97;2.13;;;37.60;35.00;;;;;;5074618;28;20255;-58
2023/08/15 11:50:24;;;;;;;2.13;1.85;;;38.10;33.90;;;;;;5074395;28;20249;-58
2023/08/15 11:52:51;;;;;;;4.45;1.90;;;38.60;32.90;;;;;;5074463;28;20255;-58
2023/08/15 11:55:19;;;;;;;4.90;2.22;;;39.10;31.40;;;;;;5074025;28;20205;-58
2023/08/15 11:57:46;;;;;;;4.00;1.63;;;39.70;31.10;;;;;;5074230;28;20228;-58
2023/08/15 12:00:16;;;;;;;6.35;2.25;;;40.10;29.60;;;;;;5074195;28;20201;-58
2023/08/15 12:02:44;;;;;;;4.05;1.85;;;40.50;29.30;;;;;;5074255;28;20222;-58
2023/08/15 12:05:12;;;;;;;6.10;2.40;;;41.10;28.00;;;;;;5073862;28;20201;-58
2023/08/15 12:07:39;;;;;;;2.78;2.00;;;41.50;27.40;;;;;;5074087;28;20206;-58
2023/08/15 12:10:08;;;;;;;3.35;1.80;;;41.60;27.80;;;;;;5074001;28;20255;-58
2023/08/15 12:12:40;;;;;;;6.97;2.08;;;41.50;27.30;;;;;;5073969;28;20202;-58
2023/08/15 12:15:09;;;;;;;5.05;2.10;;;40.80;27.80;;;;;;5073980;28;20225;-58
2023/08/15 12:17:36;;;;;;;2.33;1.50;;;40.00;28.60;;;;;;5073519;28;20719;-58
2023/08/15 12:20:06;;;;;;;2.72;1.77;;;39.20;30.00;;;;;;5073828;28;20206;-58
2023/08/15 12:22:33;;;;;;;5.22;2.25;;;38.50;30.90;;;;;;5073865;28;20297;-58
2023/08/15 12:24:59;;;;;;;2.45;1.70;;;37.70;32.40;;;;;;5073890;28;20610;-58
2023/08/15 12:27:26;;;;;;;4.70;2.45;;;37.20;34.20;;;;;;5073610;28;20198;-58
2023/08/15 12:29:54;;;;;;;5.90;2.67;;;36.80;35.90;;;;;;5074381;28;20209;-58
2023/08/15 12:32:21;;;;;;;3.97;2.40;;;36.40;34.90;;;;;;5073369;28;20682;-58
2023/08/15 12:34:48;;;;;;;6.13;2.80;;;36.00;35.90;;;;;;5073772;28;20580;-58
2023/08/15 12:37:15;;;;;;;3.10;2.30;;;35.60;37.00;;;;;;5073623;28;20217;-58
2023/08/15 12:39:41;;;;;;;3.93;2.03;;;35.40;36.80;;;;;;5073624;28;20201;-58
2023/08/15 12:42:08;;;;;;;5.67;2.57;;;35.00;37.50;;;;;;5073236;28;20829;-58
2023/08/15 12:44:35;;;;;;;8.70;2.43;;;34.80;38.50;;;;;;5074235;28;20456;-59
2023/08/15 12:47:03;;;;;;;3.73;2.27;;;34.50;39.50;;;;;;5073524;28;20201;-59
2023/08/15 12:49:30;;;;;;;5.70;2.30;;;34.20;40.10;;;;;;5073487;28;20443;-59